sensor_id;sensor_type;location;lat;lon;timestamp;P1;durP1;ratioP1;P2;durP2;ratioP2
25341;SDS011;13298;48.792;9.154;2023-02-01T00:01:59;4.40;;;2.75;;
25341;SDS011;13298;48.792;9.154;2023-02-01T00:04:25;3.85;;;2.72;;
25341;SDS011;13298;48.792;9.154;2023-02-01T00:06:51;4.15;;;2.65;;
25341;SDS011;13298;48.792;9.154;2023-02-01T00:09:17;3.40;;;2.33;;
25341;SDS011;13298;48.792;9.154;2023-02-01T00:11:43;4.88;;;2.60;;
25341;SDS011;13298;48.792;9.154;2023-02-01T00:14:09;5.07;;;2.88;;
25341;SDS011;13298;48.792;9.154;2023-02-01T00:16:35;4.07;;;2.40;;
25341;SDS011;13298;48.792;9.154;2023-02-01T00:19:02;3.92;;;2.47;;
25341;SDS011;13298;48.792;9.154;2023-02-01T00:21:31;4.35;;;2.50;;
25341;SDS011;13298;48.792;9.154;2023-02-01T00:23:57;4.90;;;2.55;;
25341;SDS011;13298;48.792;9.154;2023-02-01T00:26:31;4.55;;;2.28;;
25341;SDS011;13298;48.792;9.154;2023-02-01T00:29:03;3.15;;;2.25;;
25341;SDS011;13298;48.792;9.154;2023-02-01T00:31:32;3.00;;;1.80;;
25341;SDS011;13298;48.792;9.154;2023-02-01T00:33:58;2.70;;;2.03;;
25341;SDS011;13298;48.792;9.154;2023-02-01T00:36:24;2.97;;;2.15;;
25341;SDS011;13298;48.792;9.154;2023-02-01T00:38:49;3.30;;;2.20;;
25341;SDS011;13298;48.792;9.154;2023-02-01T00:41:16;2.50;;;2.10;;
25341;SDS011;13298;48.792;9.154;2023-02-01T00:43:44;2.80;;;1.98;;
25341;SDS011;13298;48.792;9.154;2023-02-01T00:46:10;2.30;;;1.70;;
25341;SDS011;13298;48.792;9.154;2023-02-01T00:48:38;2.83;;;1.80;;
25341;SDS011;13298;48.792;9.154;2023-02-01T00:51:05;2.55;;;1.80;;
25341;SDS011;13298;48.792;9.154;2023-02-01T00:53:34;3.13;;;1.88;;
25341;SDS011;13298;48.792;9.154;2023-02-01T00:56:00;3.08;;;1.80;;
25341;SDS011;13298;48.792;9.154;2023-02-01T00:58:26;2.83;;;1.90;;
25341;SDS011;13298;48.792;9.154;2023-02-01T01:03:27;3.15;;;2.10;;
25341;SDS011;13298;48.792;9.154;2023-02-01T01:05:56;4.03;;;1.80;;
25341;SDS011;13298;48.792;9.154;2023-02-01T01:08:22;2.72;;;1.70;;
25341;SDS011;13298;48.792;9.154;2023-02-01T01:10:48;2.97;;;1.83;;
25341;SDS011;13298;48.792;9.154;2023-02-01T01:13:14;2.60;;;1.90;;
25341;SDS011;13298;48.792;9.154;2023-02-01T01:15:40;2.13;;;1.60;;
25341;SDS011;13298;48.792;9.154;2023-02-01T01:18:06;2.60;;;1.75;;
25341;SDS011;13298;48.792;9.154;2023-02-01T01:20:34;2.15;;;1.50;;
25341;SDS011;13298;48.792;9.154;2023-02-01T01:23:02;2.55;;;1.95;;
25341;SDS011;13298;48.792;9.154;2023-02-01T01:25:28;4.47;;;1.90;;
25341;SDS011;13298;48.792;9.154;2023-02-01T01:27:54;2.33;;;1.60;;
25341;SDS011;13298;48.792;9.154;2023-02-01T01:30:20;3.33;;;1.88;;
25341;SDS011;13298;48.792;9.154;2023-02-01T01:32:46;2.10;;;1.45;;
25341;SDS011;13298;48.792;9.154;2023-02-01T01:35:12;2.38;;;1.42;;
25341;SDS011;13298;48.792;9.154;2023-02-01T01:37:37;2.53;;;1.48;;
25341;SDS011;13298;48.792;9.154;2023-02-01T01:40:04;2.53;;;1.55;;
25341;SDS011;13298;48.792;9.154;2023-02-01T01:42:36;2.03;;;1.58;;
25341;SDS011;13298;48.792;9.154;2023-02-01T01:45:05;2.67;;;1.55;;
25341;SDS011;13298;48.792;9.154;2023-02-01T01:47:54;1.92;;;1.30;;
25341;SDS011;13298;48.792;9.154;2023-02-01T01:50:29;3.53;;;1.20;;
25341;SDS011;13298;48.792;9.154;2023-02-01T01:53:00;1.27;;;1.17;;
25341;SDS011;13298;48.792;9.154;2023-02-01T01:55:30;3.20;;;1.13;;
25341;SDS011;13298;48.792;9.154;2023-02-01T01:58:00;2.30;;;1.33;;
25341;SDS011;13298;48.792;9.154;2023-02-01T02:00:30;1.80;;;1.10;;
25341;SDS011;13298;48.792;9.154;2023-02-01T02:03:03;1.48;;;1.08;;
25341;SDS011;13298;48.792;9.154;2023-02-01T02:05:38;2.15;;;1.42;;
25341;SDS011;13298;48.792;9.154;2023-02-01T02:08:04;2.00;;;1.20;;
25341;SDS011;13298;48.792;9.154;2023-02-01T02:10:30;1.48;;;1.08;;
25341;SDS011;13298;48.792;9.154;2023-02-01T02:13:17;2.25;;;1.10;;
25341;SDS011;13298;48.792;9.154;2023-02-01T02:15:46;1.05;;;0.95;;
25341;SDS011;13298;48.792;9.154;2023-02-01T02:24:50;2.47;;;1.50;;
25341;SDS011;13298;48.792;9.154;2023-02-01T02:37:16;1.95;;;1.45;;
25341;SDS011;13298;48.792;9.154;2023-02-01T02:39:18;2.33;;;1.50;;
25341;SDS011;13298;48.792;9.154;2023-02-01T02:42:43;1.88;;;1.23;;
25341;SDS011;13298;48.792;9.154;2023-02-01T02:45:30;2.65;;;1.90;;
25341;SDS011;13298;48.792;9.154;2023-02-01T02:48:52;2.30;;;1.58;;
25341;SDS011;13298;48.792;9.154;2023-02-01T02:51:34;2.08;;;1.63;;
25341;SDS011;13298;48.792;9.154;2023-02-01T02:54:34;3.60;;;1.60;;
25341;SDS011;13298;48.792;9.154;2023-02-01T02:59:44;2.95;;;1.75;;
25341;SDS011;13298;48.792;9.154;2023-02-01T03:02:30;2.95;;;1.90;;
25341;SDS011;13298;48.792;9.154;2023-02-01T03:05:15;1.90;;;1.50;;
25341;SDS011;13298;48.792;9.154;2023-02-01T03:13:06;2.35;;;1.83;;
25341;SDS011;13298;48.792;9.154;2023-02-01T03:16:07;2.88;;;1.90;;
25341;SDS011;13298;48.792;9.154;2023-02-01T03:21:23;2.70;;;1.83;;
25341;SDS011;13298;48.792;9.154;2023-02-01T03:23:52;3.38;;;1.80;;
25341;SDS011;13298;48.792;9.154;2023-02-01T03:26:21;2.15;;;1.60;;
25341;SDS011;13298;48.792;9.154;2023-02-01T03:28:54;2.78;;;1.85;;
25341;SDS011;13298;48.792;9.154;2023-02-01T03:31:28;2.58;;;1.80;;
25341;SDS011;13298;48.792;9.154;2023-02-01T03:33:54;2.15;;;1.58;;
25341;SDS011;13298;48.792;9.154;2023-02-01T03:36:23;2.72;;;1.58;;
25341;SDS011;13298;48.792;9.154;2023-02-01T03:42:00;2.83;;;1.70;;
25341;SDS011;13298;48.792;9.154;2023-02-01T03:44:49;2.85;;;1.92;;
25341;SDS011;13298;48.792;9.154;2023-02-01T03:47:27;2.05;;;1.52;;
25341;SDS011;13298;48.792;9.154;2023-02-01T03:49:59;3.22;;;2.25;;
25341;SDS011;13298;48.792;9.154;2023-02-01T03:55:18;4.32;;;1.90;;
25341;SDS011;13298;48.792;9.154;2023-02-01T03:57:53;2.63;;;1.70;;
25341;SDS011;13298;48.792;9.154;2023-02-01T04:00:29;2.90;;;1.80;;
25341;SDS011;13298;48.792;9.154;2023-02-01T04:02:55;2.20;;;1.58;;
25341;SDS011;13298;48.792;9.154;2023-02-01T04:05:21;2.20;;;1.70;;
25341;SDS011;13298;48.792;9.154;2023-02-01T04:07:47;3.20;;;1.60;;
25341;SDS011;13298;48.792;9.154;2023-02-01T04:10:13;2.13;;;1.60;;
25341;SDS011;13298;48.792;9.154;2023-02-01T04:12:39;3.38;;;1.77;;
25341;SDS011;13298;48.792;9.154;2023-02-01T04:15:05;2.63;;;1.63;;
25341;SDS011;13298;48.792;9.154;2023-02-01T04:17:32;1.90;;;1.52;;
25341;SDS011;13298;48.792;9.154;2023-02-01T04:19:58;3.92;;;1.80;;
25341;SDS011;13298;48.792;9.154;2023-02-01T04:22:23;2.40;;;1.73;;
25341;SDS011;13298;48.792;9.154;2023-02-01T04:24:49;3.92;;;1.80;;
25341;SDS011;13298;48.792;9.154;2023-02-01T04:27:15;2.53;;;1.60;;
25341;SDS011;13298;48.792;9.154;2023-02-01T04:29:41;2.05;;;1.45;;
25341;SDS011;13298;48.792;9.154;2023-02-01T04:32:06;1.92;;;1.50;;
25341;SDS011;13298;48.792;9.154;2023-02-01T04:34:32;1.70;;;1.45;;
25341;SDS011;13298;48.792;9.154;2023-02-01T04:36:58;2.08;;;1.45;;
25341;SDS011;13298;48.792;9.154;2023-02-01T04:39:23;2.08;;;1.58;;
25341;SDS011;13298;48.792;9.154;2023-02-01T04:41:49;3.45;;;1.60;;
25341;SDS011;13298;48.792;9.154;2023-02-01T04:44:16;3.60;;;1.60;;
25341;SDS011;13298;48.792;9.154;2023-02-01T04:46:43;2.85;;;1.90;;
25341;SDS011;13298;48.792;9.154;2023-02-01T04:49:11;3.38;;;1.58;;
25341;SDS011;13298;48.792;9.154;2023-02-01T04:51:38;2.05;;;1.67;;
25341;SDS011;13298;48.792;9.154;2023-02-01T04:54:05;2.05;;;1.40;;
25341;SDS011;13298;48.792;9.154;2023-02-01T04:56:31;3.42;;;1.67;;
25341;SDS011;13298;48.792;9.154;2023-02-01T04:58:57;2.28;;;1.48;;
25341;SDS011;13298;48.792;9.154;2023-02-01T05:01:23;2.30;;;1.60;;
25341;SDS011;13298;48.792;9.154;2023-02-01T05:03:49;2.30;;;1.50;;
25341;SDS011;13298;48.792;9.154;2023-02-01T05:06:15;1.95;;;1.40;;
25341;SDS011;13298;48.792;9.154;2023-02-01T05:08:41;2.28;;;1.35;;
25341;SDS011;13298;48.792;9.154;2023-02-01T05:11:07;2.90;;;1.50;;
25341;SDS011;13298;48.792;9.154;2023-02-01T05:13:53;1.92;;;1.50;;
25341;SDS011;13298;48.792;9.154;2023-02-01T05:16:18;2.28;;;1.40;;
25341;SDS011;13298;48.792;9.154;2023-02-01T05:18:44;3.42;;;1.55;;
25341;SDS011;13298;48.792;9.154;2023-02-01T05:21:10;2.60;;;1.55;;
25341;SDS011;13298;48.792;9.154;2023-02-01T05:23:35;1.60;;;1.30;;
25341;SDS011;13298;48.792;9.154;2023-02-01T05:26:21;2.42;;;1.52;;
25341;SDS011;13298;48.792;9.154;2023-02-01T05:28:47;1.80;;;1.33;;
25341;SDS011;13298;48.792;9.154;2023-02-01T05:31:13;2.63;;;1.35;;
25341;SDS011;13298;48.792;9.154;2023-02-01T05:33:38;2.25;;;1.70;;
25341;SDS011;13298;48.792;9.154;2023-02-01T05:36:04;2.53;;;1.77;;
25341;SDS011;13298;48.792;9.154;2023-02-01T05:38:30;3.42;;;1.52;;
25341;SDS011;13298;48.792;9.154;2023-02-01T05:40:56;2.72;;;1.42;;
25341;SDS011;13298;48.792;9.154;2023-02-01T05:43:21;2.58;;;1.75;;
25341;SDS011;13298;48.792;9.154;2023-02-01T05:45:47;2.17;;;1.70;;
25341;SDS011;13298;48.792;9.154;2023-02-01T05:48:13;3.55;;;1.58;;
25341;SDS011;13298;48.792;9.154;2023-02-01T05:50:39;2.47;;;1.23;;
25341;SDS011;13298;48.792;9.154;2023-02-01T05:53:05;1.85;;;1.33;;
25341;SDS011;13298;48.792;9.154;2023-02-01T05:55:31;3.35;;;1.83;;
25341;SDS011;13298;48.792;9.154;2023-02-01T05:57:57;5.85;;;2.03;;
25341;SDS011;13298;48.792;9.154;2023-02-01T06:00:23;2.45;;;1.70;;
25341;SDS011;13298;48.792;9.154;2023-02-01T06:02:49;3.15;;;1.90;;
25341;SDS011;13298;48.792;9.154;2023-02-01T06:05:14;3.80;;;1.80;;
25341;SDS011;13298;48.792;9.154;2023-02-01T06:07:40;3.35;;;2.05;;
25341;SDS011;13298;48.792;9.154;2023-02-01T06:10:06;3.33;;;1.75;;
25341;SDS011;13298;48.792;9.154;2023-02-01T06:12:32;3.50;;;1.80;;
25341;SDS011;13298;48.792;9.154;2023-02-01T06:14:58;2.70;;;1.85;;
25341;SDS011;13298;48.792;9.154;2023-02-01T06:17:24;4.55;;;1.90;;
25341;SDS011;13298;48.792;9.154;2023-02-01T06:19:49;3.80;;;2.10;;
25341;SDS011;13298;48.792;9.154;2023-02-01T06:22:15;3.40;;;1.80;;
25341;SDS011;13298;48.792;9.154;2023-02-01T06:24:41;3.42;;;2.28;;
25341;SDS011;13298;48.792;9.154;2023-02-01T06:27:07;5.43;;;2.55;;
25341;SDS011;13298;48.792;9.154;2023-02-01T06:29:34;4.30;;;2.35;;
25341;SDS011;13298;48.792;9.154;2023-02-01T06:32:09;6.63;;;2.13;;
25341;SDS011;13298;48.792;9.154;2023-02-01T06:35:08;5.45;;;1.83;;
25341;SDS011;13298;48.792;9.154;2023-02-01T06:37:41;2.53;;;1.77;;
25341;SDS011;13298;48.792;9.154;2023-02-01T06:40:07;3.47;;;1.95;;
25341;SDS011;13298;48.792;9.154;2023-02-01T06:42:34;3.20;;;1.90;;
25341;SDS011;13298;48.792;9.154;2023-02-01T06:44:59;3.92;;;1.70;;
25341;SDS011;13298;48.792;9.154;2023-02-01T06:47:25;5.97;;;2.08;;
25341;SDS011;13298;48.792;9.154;2023-02-01T06:49:51;3.53;;;1.95;;
25341;SDS011;13298;48.792;9.154;2023-02-01T06:52:16;3.53;;;1.80;;
25341;SDS011;13298;48.792;9.154;2023-02-01T06:54:42;5.90;;;1.80;;
25341;SDS011;13298;48.792;9.154;2023-02-01T06:57:08;6.43;;;2.50;;
25341;SDS011;13298;48.792;9.154;2023-02-01T06:59:33;6.65;;;2.10;;
25341;SDS011;13298;48.792;9.154;2023-02-01T07:01:59;4.97;;;2.25;;
25341;SDS011;13298;48.792;9.154;2023-02-01T07:04:25;3.28;;;1.77;;
25341;SDS011;13298;48.792;9.154;2023-02-01T07:06:50;4.30;;;2.20;;
25341;SDS011;13298;48.792;9.154;2023-02-01T07:09:16;5.00;;;2.60;;
25341;SDS011;13298;48.792;9.154;2023-02-01T07:11:42;5.32;;;2.28;;
25341;SDS011;13298;48.792;9.154;2023-02-01T07:14:09;4.47;;;2.30;;
25341;SDS011;13298;48.792;9.154;2023-02-01T07:16:35;6.93;;;2.35;;
25341;SDS011;13298;48.792;9.154;2023-02-01T07:19:01;3.22;;;2.13;;
25341;SDS011;13298;48.792;9.154;2023-02-01T07:21:27;3.95;;;2.00;;
25341;SDS011;13298;48.792;9.154;2023-02-01T07:23:53;3.75;;;2.40;;
25341;SDS011;13298;48.792;9.154;2023-02-01T07:26:19;4.35;;;2.08;;
25341;SDS011;13298;48.792;9.154;2023-02-01T07:28:45;5.78;;;1.95;;
25341;SDS011;13298;48.792;9.154;2023-02-01T07:31:12;3.28;;;1.98;;
25341;SDS011;13298;48.792;9.154;2023-02-01T07:33:43;5.70;;;2.20;;
25341;SDS011;13298;48.792;9.154;2023-02-01T07:36:13;5.40;;;2.60;;
25341;SDS011;13298;48.792;9.154;2023-02-01T07:41:07;5.50;;;2.60;;
25341;SDS011;13298;48.792;9.154;2023-02-01T07:43:33;7.78;;;2.30;;
25341;SDS011;13298;48.792;9.154;2023-02-01T07:46:00;5.13;;;2.33;;
25341;SDS011;13298;48.792;9.154;2023-02-01T07:48:27;6.05;;;2.10;;
25341;SDS011;13298;48.792;9.154;2023-02-01T07:51:12;7.22;;;2.30;;
25341;SDS011;13298;48.792;9.154;2023-02-01T07:53:41;5.82;;;2.03;;
25341;SDS011;13298;48.792;9.154;2023-02-01T07:56:14;6.30;;;2.38;;
25341;SDS011;13298;48.792;9.154;2023-02-01T07:58:42;4.60;;;2.10;;
25341;SDS011;13298;48.792;9.154;2023-02-01T08:01:15;9.65;;;2.40;;
25341;SDS011;13298;48.792;9.154;2023-02-01T08:03:49;6.03;;;2.17;;
25341;SDS011;13298;48.792;9.154;2023-02-01T08:06:27;7.13;;;2.40;;
25341;SDS011;13298;48.792;9.154;2023-02-01T08:08:56;8.88;;;2.30;;
25341;SDS011;13298;48.792;9.154;2023-02-01T08:11:22;8.77;;;2.38;;
25341;SDS011;13298;48.792;9.154;2023-02-01T08:13:49;11.43;;;2.67;;
25341;SDS011;13298;48.792;9.154;2023-02-01T08:16:16;8.95;;;2.20;;
25341;SDS011;13298;48.792;9.154;2023-02-01T08:18:44;13.30;;;2.65;;
25341;SDS011;13298;48.792;9.154;2023-02-01T08:21:14;7.13;;;2.55;;
25341;SDS011;13298;48.792;9.154;2023-02-01T08:23:48;5.47;;;2.25;;
25341;SDS011;13298;48.792;9.154;2023-02-01T08:26:15;10.60;;;2.47;;
25341;SDS011;13298;48.792;9.154;2023-02-01T08:28:47;9.63;;;2.50;;
25341;SDS011;13298;48.792;9.154;2023-02-01T08:31:19;6.65;;;2.65;;
25341;SDS011;13298;48.792;9.154;2023-02-01T08:33:48;9.48;;;2.72;;
25341;SDS011;13298;48.792;9.154;2023-02-01T08:36:17;9.88;;;3.25;;
25341;SDS011;13298;48.792;9.154;2023-02-01T08:38:43;7.53;;;3.00;;
25341;SDS011;13298;48.792;9.154;2023-02-01T08:41:16;14.60;;;3.00;;
25341;SDS011;13298;48.792;9.154;2023-02-01T08:43:45;6.53;;;2.50;;
25341;SDS011;13298;48.792;9.154;2023-02-01T08:46:13;7.82;;;3.13;;
25341;SDS011;13298;48.792;9.154;2023-02-01T08:48:39;9.40;;;2.72;;
25341;SDS011;13298;48.792;9.154;2023-02-01T08:51:12;9.30;;;2.88;;
25341;SDS011;13298;48.792;9.154;2023-02-01T08:53:39;9.60;;;2.45;;
25341;SDS011;13298;48.792;9.154;2023-02-01T08:56:06;9.77;;;2.50;;
25341;SDS011;13298;48.792;9.154;2023-02-01T08:58:32;7.75;;;2.35;;
25341;SDS011;13298;48.792;9.154;2023-02-01T09:01:02;9.27;;;2.22;;
25341;SDS011;13298;48.792;9.154;2023-02-01T09:03:38;6.60;;;2.08;;
25341;SDS011;13298;48.792;9.154;2023-02-01T09:06:05;8.75;;;2.20;;
25341;SDS011;13298;48.792;9.154;2023-02-01T09:08:34;6.85;;;1.80;;
25341;SDS011;13298;48.792;9.154;2023-02-01T09:11:02;8.60;;;2.45;;
25341;SDS011;13298;48.792;9.154;2023-02-01T09:13:30;9.35;;;2.67;;
25341;SDS011;13298;48.792;9.154;2023-02-01T09:15:58;6.22;;;2.13;;
25341;SDS011;13298;48.792;9.154;2023-02-01T09:18:24;10.45;;;2.78;;
25341;SDS011;13298;48.792;9.154;2023-02-01T09:20:50;8.10;;;2.28;;
25341;SDS011;13298;48.792;9.154;2023-02-01T09:23:16;10.10;;;2.45;;
25341;SDS011;13298;48.792;9.154;2023-02-01T09:25:42;10.23;;;2.20;;
25341;SDS011;13298;48.792;9.154;2023-02-01T09:28:08;6.82;;;2.10;;
25341;SDS011;13298;48.792;9.154;2023-02-01T09:30:34;8.45;;;2.03;;
25341;SDS011;13298;48.792;9.154;2023-02-01T09:33:01;6.88;;;2.63;;
25341;SDS011;13298;48.792;9.154;2023-02-01T09:35:28;9.00;;;2.28;;
25341;SDS011;13298;48.792;9.154;2023-02-01T09:37:53;10.38;;;2.10;;
25341;SDS011;13298;48.792;9.154;2023-02-01T09:40:20;9.65;;;2.05;;
25341;SDS011;13298;48.792;9.154;2023-02-01T09:42:50;9.18;;;2.30;;
25341;SDS011;13298;48.792;9.154;2023-02-01T09:45:46;9.02;;;2.63;;
25341;SDS011;13298;48.792;9.154;2023-02-01T09:48:34;11.13;;;2.20;;
25341;SDS011;13298;48.792;9.154;2023-02-01T09:51:05;7.70;;;1.95;;
25341;SDS011;13298;48.792;9.154;2023-02-01T09:53:40;12.30;;;2.55;;
25341;SDS011;13298;48.792;9.154;2023-02-01T09:56:18;10.75;;;2.42;;
25341;SDS011;13298;48.792;9.154;2023-02-01T09:58:50;8.43;;;2.30;;
25341;SDS011;13298;48.792;9.154;2023-02-01T10:01:25;8.55;;;1.92;;
25341;SDS011;13298;48.792;9.154;2023-02-01T10:03:53;13.65;;;2.30;;
25341;SDS011;13298;48.792;9.154;2023-02-01T10:09:14;8.90;;;2.17;;
25341;SDS011;13298;48.792;9.154;2023-02-01T10:21:26;14.70;;;2.47;;
25341;SDS011;13298;48.792;9.154;2023-02-01T10:29:43;13.00;;;2.63;;
25341;SDS011;13298;48.792;9.154;2023-02-01T10:32:23;11.60;;;2.50;;
25341;SDS011;13298;48.792;9.154;2023-02-01T10:35:02;16.15;;;2.17;;
25341;SDS011;13298;48.792;9.154;2023-02-01T10:37:38;6.63;;;2.20;;
25341;SDS011;13298;48.792;9.154;2023-02-01T10:42:46;12.48;;;2.50;;
25341;SDS011;13298;48.792;9.154;2023-02-01T10:45:16;8.35;;;1.80;;
25341;SDS011;13298;48.792;9.154;2023-02-01T10:47:46;11.10;;;2.38;;
25341;SDS011;13298;48.792;9.154;2023-02-01T10:50:17;9.30;;;2.42;;
25341;SDS011;13298;48.792;9.154;2023-02-01T10:52:51;10.55;;;2.30;;
25341;SDS011;13298;48.792;9.154;2023-02-01T10:56:06;12.55;;;2.17;;
25341;SDS011;13298;48.792;9.154;2023-02-01T10:58:42;15.77;;;2.78;;
25341;SDS011;13298;48.792;9.154;2023-02-01T11:01:16;7.80;;;2.20;;
25341;SDS011;13298;48.792;9.154;2023-02-01T11:06:43;10.15;;;2.22;;
25341;SDS011;13298;48.792;9.154;2023-02-01T11:09:48;14.57;;;2.38;;
25341;SDS011;13298;48.792;9.154;2023-02-01T11:12:27;10.05;;;2.45;;
25341;SDS011;13298;48.792;9.154;2023-02-01T11:17:39;6.95;;;2.08;;
25341;SDS011;13298;48.792;9.154;2023-02-01T11:20:21;8.80;;;1.83;;
25341;SDS011;13298;48.792;9.154;2023-02-01T11:23:08;9.68;;;2.45;;
25341;SDS011;13298;48.792;9.154;2023-02-01T11:25:50;10.18;;;2.13;;
25341;SDS011;13298;48.792;9.154;2023-02-01T11:28:21;14.75;;;2.15;;
25341;SDS011;13298;48.792;9.154;2023-02-01T11:30:56;5.57;;;1.60;;
25341;SDS011;13298;48.792;9.154;2023-02-01T11:33:30;10.23;;;2.22;;
25341;SDS011;13298;48.792;9.154;2023-02-01T11:36:08;10.05;;;2.10;;
25341;SDS011;13298;48.792;9.154;2023-02-01T11:41:34;9.93;;;2.47;;
25341;SDS011;13298;48.792;9.154;2023-02-01T11:44:22;16.08;;;2.88;;
25341;SDS011;13298;48.792;9.154;2023-02-01T11:49:51;7.70;;;2.13;;
25341;SDS011;13298;48.792;9.154;2023-02-01T11:52:41;8.43;;;2.13;;
25341;SDS011;13298;48.792;9.154;2023-02-01T11:58:50;11.68;;;2.22;;
25341;SDS011;13298;48.792;9.154;2023-02-01T12:01:43;11.02;;;2.00;;
25341;SDS011;13298;48.792;9.154;2023-02-01T12:08:03;11.80;;;2.17;;
25341;SDS011;13298;48.792;9.154;2023-02-01T12:16:55;11.50;;;2.17;;
25341;SDS011;13298;48.792;9.154;2023-02-01T12:31:37;14.77;;;2.25;;
25341;SDS011;13298;48.792;9.154;2023-02-01T12:40:04;8.32;;;2.00;;
25341;SDS011;13298;48.792;9.154;2023-02-01T12:42:56;5.05;;;2.20;;
25341;SDS011;13298;48.792;9.154;2023-02-01T12:45:45;12.13;;;2.13;;
25341;SDS011;13298;48.792;9.154;2023-02-01T12:48:23;10.77;;;2.03;;
25341;SDS011;13298;48.792;9.154;2023-02-01T12:51:15;11.90;;;2.28;;
25341;SDS011;13298;48.792;9.154;2023-02-01T12:56:35;14.65;;;1.90;;
25341;SDS011;13298;48.792;9.154;2023-02-01T12:59:13;8.55;;;2.10;;
25341;SDS011;13298;48.792;9.154;2023-02-01T13:01:46;11.57;;;2.47;;
25341;SDS011;13298;48.792;9.154;2023-02-01T13:04:35;9.82;;;2.08;;
25341;SDS011;13298;48.792;9.154;2023-02-01T13:07:38;10.57;;;2.10;;
25341;SDS011;13298;48.792;9.154;2023-02-01T13:10:18;16.17;;;2.13;;
25341;SDS011;13298;48.792;9.154;2023-02-01T13:15:56;11.65;;;2.58;;
25341;SDS011;13298;48.792;9.154;2023-02-01T13:18:34;13.98;;;2.08;;
25341;SDS011;13298;48.792;9.154;2023-02-01T13:21:04;10.32;;;2.28;;
25341;SDS011;13298;48.792;9.154;2023-02-01T13:23:38;13.55;;;2.60;;
25341;SDS011;13298;48.792;9.154;2023-02-01T13:26:06;12.00;;;2.05;;
25341;SDS011;13298;48.792;9.154;2023-02-01T13:42:51;10.70;;;2.08;;
25341;SDS011;13298;48.792;9.154;2023-02-01T13:47:56;8.20;;;2.13;;
25341;SDS011;13298;48.792;9.154;2023-02-01T13:53:00;10.40;;;2.53;;
25341;SDS011;13298;48.792;9.154;2023-02-01T13:56:01;6.07;;;2.08;;
25341;SDS011;13298;48.792;9.154;2023-02-01T13:58:37;9.20;;;1.95;;
25341;SDS011;13298;48.792;9.154;2023-02-01T14:03:47;9.60;;;2.13;;
25341;SDS011;13298;48.792;9.154;2023-02-01T14:09:11;11.52;;;2.60;;
25341;SDS011;13298;48.792;9.154;2023-02-01T14:11:44;10.35;;;2.00;;
25341;SDS011;13298;48.792;9.154;2023-02-01T14:16:40;10.07;;;2.08;;
25341;SDS011;13298;48.792;9.154;2023-02-01T14:19:30;7.20;;;1.80;;
25341;SDS011;13298;48.792;9.154;2023-02-01T14:22:40;17.23;;;2.47;;
25341;SDS011;13298;48.792;9.154;2023-02-01T14:27:26;10.40;;;2.22;;
25341;SDS011;13298;48.792;9.154;2023-02-01T14:29:58;11.50;;;2.00;;
25341;SDS011;13298;48.792;9.154;2023-02-01T14:32:33;12.57;;;2.17;;
25341;SDS011;13298;48.792;9.154;2023-02-01T14:35:07;9.30;;;1.92;;
25341;SDS011;13298;48.792;9.154;2023-02-01T14:37:43;12.63;;;2.00;;
25341;SDS011;13298;48.792;9.154;2023-02-01T14:55:46;14.32;;;2.45;;
25341;SDS011;13298;48.792;9.154;2023-02-01T15:01:35;14.52;;;2.28;;
25341;SDS011;13298;48.792;9.154;2023-02-01T15:04:05;8.82;;;2.30;;
25341;SDS011;13298;48.792;9.154;2023-02-01T15:09:32;9.88;;;2.10;;
25341;SDS011;13298;48.792;9.154;2023-02-01T15:14:37;11.77;;;2.45;;
25341;SDS011;13298;48.792;9.154;2023-02-01T15:17:21;13.73;;;2.45;;
25341;SDS011;13298;48.792;9.154;2023-02-01T15:19:54;9.48;;;2.38;;
25341;SDS011;13298;48.792;9.154;2023-02-01T15:22:22;11.20;;;2.30;;
25341;SDS011;13298;48.792;9.154;2023-02-01T15:24:53;14.25;;;3.05;;
25341;SDS011;13298;48.792;9.154;2023-02-01T15:27:21;13.63;;;2.65;;
25341;SDS011;13298;48.792;9.154;2023-02-01T15:29:47;15.48;;;2.20;;
25341;SDS011;13298;48.792;9.154;2023-02-01T15:32:29;5.07;;;1.63;;
25341;SDS011;13298;48.792;9.154;2023-02-01T15:35:03;8.57;;;2.25;;
25341;SDS011;13298;48.792;9.154;2023-02-01T15:37:30;8.50;;;1.92;;
25341;SDS011;13298;48.792;9.154;2023-02-01T15:40:29;10.05;;;1.98;;
25341;SDS011;13298;48.792;9.154;2023-02-01T15:42:56;7.00;;;1.67;;
25341;SDS011;13298;48.792;9.154;2023-02-01T15:45:27;8.95;;;2.00;;
25341;SDS011;13298;48.792;9.154;2023-02-01T15:47:57;10.52;;;2.13;;
25341;SDS011;13298;48.792;9.154;2023-02-01T15:50:23;14.40;;;2.25;;
25341;SDS011;13298;48.792;9.154;2023-02-01T15:52:51;11.48;;;2.25;;
25341;SDS011;13298;48.792;9.154;2023-02-01T15:55:21;13.25;;;3.10;;
25341;SDS011;13298;48.792;9.154;2023-02-01T15:58:07;11.48;;;2.20;;
25341;SDS011;13298;48.792;9.154;2023-02-01T16:00:46;8.88;;;1.80;;
25341;SDS011;13298;48.792;9.154;2023-02-01T16:03:33;12.55;;;2.22;;
25341;SDS011;13298;48.792;9.154;2023-02-01T16:06:07;9.30;;;1.92;;
25341;SDS011;13298;48.792;9.154;2023-02-01T16:08:36;10.73;;;2.20;;
25341;SDS011;13298;48.792;9.154;2023-02-01T16:13:34;7.97;;;1.95;;
25341;SDS011;13298;48.792;9.154;2023-02-01T16:16:00;6.65;;;2.10;;
25341;SDS011;13298;48.792;9.154;2023-02-01T16:18:27;13.02;;;2.28;;
25341;SDS011;13298;48.792;9.154;2023-02-01T16:20:52;4.88;;;1.40;;
25341;SDS011;13298;48.792;9.154;2023-02-01T16:23:18;7.53;;;2.00;;
25341;SDS011;13298;48.792;9.154;2023-02-01T16:25:45;6.28;;;1.88;;
25341;SDS011;13298;48.792;9.154;2023-02-01T16:28:11;13.98;;;1.77;;
25341;SDS011;13298;48.792;9.154;2023-02-01T16:30:37;10.77;;;2.53;;
25341;SDS011;13298;48.792;9.154;2023-02-01T16:33:03;9.00;;;2.08;;
25341;SDS011;13298;48.792;9.154;2023-02-01T16:35:37;12.73;;;2.20;;
25341;SDS011;13298;48.792;9.154;2023-02-01T16:38:03;8.90;;;2.00;;
25341;SDS011;13298;48.792;9.154;2023-02-01T16:40:37;11.27;;;1.85;;
25341;SDS011;13298;48.792;9.154;2023-02-01T16:43:14;12.65;;;1.67;;
25341;SDS011;13298;48.792;9.154;2023-02-01T16:45:43;7.15;;;1.63;;
25341;SDS011;13298;48.792;9.154;2023-02-01T16:50:55;7.38;;;1.65;;
25341;SDS011;13298;48.792;9.154;2023-02-01T16:53:24;8.50;;;1.73;;
25341;SDS011;13298;48.792;9.154;2023-02-01T16:55:52;10.45;;;2.20;;
25341;SDS011;13298;48.792;9.154;2023-02-01T16:58:19;12.48;;;2.10;;
25341;SDS011;13298;48.792;9.154;2023-02-01T17:00:46;11.40;;;2.58;;
25341;SDS011;13298;48.792;9.154;2023-02-01T17:03:13;7.72;;;2.00;;
25341;SDS011;13298;48.792;9.154;2023-02-01T17:05:41;7.45;;;1.70;;
25341;SDS011;13298;48.792;9.154;2023-02-01T17:08:14;11.40;;;2.03;;
25341;SDS011;13298;48.792;9.154;2023-02-01T17:10:44;12.07;;;2.22;;
25341;SDS011;13298;48.792;9.154;2023-02-01T17:13:16;7.40;;;2.10;;
25341;SDS011;13298;48.792;9.154;2023-02-01T17:15:45;10.63;;;2.05;;
25341;SDS011;13298;48.792;9.154;2023-02-01T17:18:42;7.97;;;2.08;;
25341;SDS011;13298;48.792;9.154;2023-02-01T17:21:11;6.68;;;2.00;;
25341;SDS011;13298;48.792;9.154;2023-02-01T17:23:37;7.75;;;1.98;;
25341;SDS011;13298;48.792;9.154;2023-02-01T17:26:03;7.45;;;1.60;;
25341;SDS011;13298;48.792;9.154;2023-02-01T17:28:29;9.57;;;1.70;;
25341;SDS011;13298;48.792;9.154;2023-02-01T17:30:55;14.73;;;2.22;;
25341;SDS011;13298;48.792;9.154;2023-02-01T17:33:23;8.93;;;1.77;;
25341;SDS011;13298;48.792;9.154;2023-02-01T17:35:54;10.32;;;2.15;;
25341;SDS011;13298;48.792;9.154;2023-02-01T17:38:21;6.45;;;1.80;;
25341;SDS011;13298;48.792;9.154;2023-02-01T17:40:48;11.25;;;2.10;;
25341;SDS011;13298;48.792;9.154;2023-02-01T17:43:19;9.48;;;2.20;;
25341;SDS011;13298;48.792;9.154;2023-02-01T17:45:51;13.00;;;2.53;;
25341;SDS011;13298;48.792;9.154;2023-02-01T17:48:20;7.03;;;1.83;;
25341;SDS011;13298;48.792;9.154;2023-02-01T17:50:48;12.00;;;1.70;;
25341;SDS011;13298;48.792;9.154;2023-02-01T17:53:22;8.60;;;2.55;;
25341;SDS011;13298;48.792;9.154;2023-02-01T17:55:50;9.20;;;1.80;;
25341;SDS011;13298;48.792;9.154;2023-02-01T17:58:16;7.00;;;1.60;;